Time;durP1;ratioP1;P1;durP2;ratioP2;P2;SDS_P1;SDS_P2;PMS_P1;PMS_P2;Temp;Humidity;BMP_temperature;BMP_pressure;BME280_temperature;BME280_humidity;BME280_pressure;Samples;Min_cycle;Max_cycle;Signal;HPM_P1;HPM_P2
2022/03/20 00:00:53;;;;;;;7.15;3.97;;;;;;;10.96;31.50;103486.34;143723;583;47006;-79
2022/03/20 00:03:22;;;;;;;8.02;4.62;;;;;;;10.97;32.72;103499.66;143724;607;47008;-79
2022/03/20 00:05:50;;;;;;;11.23;4.28;;;;;;;10.94;33.26;103491.88;143726;604;47004;-80
2022/03/20 00:08:17;;;;;;;8.25;4.43;;;;;;;10.95;31.96;103493.53;143723;609;47010;-79
2022/03/20 00:10:49;;;;;;;5.47;4.28;;;;;;;10.96;33.64;103478.28;143722;672;47006;-80
2022/03/20 00:13:18;;;;;;;4.87;3.60;;;;;;;10.96;33.39;103489.88;143722;698;47008;-79
2022/03/20 00:15:52;;;;;;;7.05;4.62;;;;;;;10.95;33.63;103490.84;143726;581;47004;-79
2022/03/20 00:18:20;;;;;;;5.93;4.78;;;;;;;10.91;33.10;103490.28;143726;611;47010;-79
2022/03/20 00:20:52;;;;;;;13.13;9.50;;;;;;;10.95;35.40;103490.84;143724;592;47006;-79
2022/03/20 00:23:19;;;;;;;9.55;6.97;;;;;;;10.94;34.10;103483.81;143725;591;47009;-78
2022/03/20 00:25:47;;;;;;;30.33;16.33;;;;;;;10.87;32.86;103480.75;143725;581;47006;-78
2022/03/20 00:28:16;;;;;;;7.30;5.15;;;;;;;10.79;31.84;103490.47;143724;572;47010;-78
2022/03/20 00:30:44;;;;;;;9.57;6.55;;;;;;;10.76;33.85;103481.72;143722;593;47007;-78
2022/03/20 00:33:10;;;;;;;15.45;8.23;;;;;;;10.74;32.77;103475.59;143723;583;47931;-77
2022/03/20 00:35:38;;;;;;;34.58;21.65;;;;;;;10.81;32.48;103486.69;143727;640;47006;-80
2022/03/20 00:38:06;;;;;;;24.12;13.95;;;;;;;10.77;31.55;103480.69;143722;654;47011;-79
2022/03/20 00:40:32;;;;;;;36.20;23.60;;;;;;;10.75;31.15;103479.12;143721;580;47006;-78
2022/03/20 00:42:59;;;;;;;14.27;10.02;;;;;;;10.72;30.59;103482.09;143724;655;47008;-79
2022/03/20 00:45:26;;;;;;;19.83;11.52;;;;;;;10.75;32.18;103479.12;143725;595;47004;-78
2022/03/20 00:47:53;;;;;;;21.45;13.65;;;;;;;10.75;31.49;103490.75;143723;591;47013;-78
2022/03/20 00:50:19;;;;;;;9.75;7.07;;;;;;;10.76;30.19;103484.41;143721;609;47006;-79
2022/03/20 00:52:45;;;;;;;15.60;10.73;;;;;;;10.67;30.82;103482.47;143722;657;47002;-80
2022/03/20 00:55:11;;;;;;;7.12;4.82;;;;;;;10.59;29.84;103472.38;143723;660;47004;-79
2022/03/20 00:57:38;;;;;;;8.20;5.57;;;;;;;10.50;30.01;103475.84;143721;572;47012;-76
2022/03/20 01:00:06;;;;;;;12.20;7.22;;;;;;;10.51;30.19;103480.22;143720;608;47006;-80
2022/03/20 01:02:43;;;;;;;9.18;6.35;;;;;;;10.52;29.98;103481.94;143721;595;47008;-78
2022/03/20 01:05:10;;;;;;;6.75;4.47;;;;;;;10.55;30.23;103480.84;143722;568;47004;-79
2022/03/20 01:07:37;;;;;;;6.30;5.07;;;;;;;10.58;30.57;103480.59;143720;584;47010;-79
2022/03/20 01:10:06;;;;;;;5.95;3.70;;;;;;;10.53;29.85;103477.44;143720;569;47006;-79
2022/03/20 01:12:33;;;;;;;7.47;4.15;;;;;;;10.54;29.89;103485.34;143722;589;47008;-78
2022/03/20 01:15:01;;;;;;;7.05;4.47;;;;;;;10.54;30.30;103479.97;143724;587;47006;-80
2022/03/20 01:17:27;;;;;;;8.13;4.97;;;;;;;10.52;29.60;103483.78;143721;783;47013;-78
2022/03/20 01:19:54;;;;;;;7.90;3.80;;;;;;;10.49;29.75;103476.84;143721;628;47006;-78
2022/03/20 01:22:20;;;;;;;12.48;6.43;;;;;;;10.50;29.61;103483.06;143719;567;47008;-79
2022/03/20 01:24:46;;;;;;;7.45;4.28;;;;;;;10.45;29.27;103464.66;143724;576;47004;-79
2022/03/20 01:27:13;;;;;;;5.85;3.50;;;;;;;10.45;29.52;103467.34;143721;581;47010;-78
2022/03/20 01:29:40;;;;;;;6.65;3.90;;;;;;;10.44;28.99;103473.69;143722;586;47006;-79
2022/03/20 01:32:07;;;;;;;7.28;5.12;;;;;;;10.48;29.13;103467.09;143722;612;47008;-80
2022/03/20 01:34:35;;;;;;;6.22;4.50;;;;;;;10.45;29.65;103478.94;143724;586;47008;-78
2022/03/20 01:37:02;;;;;;;8.35;3.72;;;;;;;10.42;29.05;103476.50;143722;594;47012;-80
2022/03/20 01:39:28;;;;;;;6.07;3.40;;;;;;;10.40;29.45;103477.59;143721;597;47006;-79
2022/03/20 01:41:55;;;;;;;3.97;3.05;;;;;;;10.41;28.36;103464.03;143722;586;47008;-78
2022/03/20 01:44:30;;;;;;;3.78;2.75;;;;;;;10.44;28.19;103471.84;143722;584;47004;-79
2022/03/20 01:46:58;;;;;;;5.05;3.60;;;;;;;10.50;28.84;103465.09;143720;627;47010;-77
2022/03/20 01:49:24;;;;;;;4.62;3.35;;;;;;;10.46;29.00;103472.56;143722;602;47006;-78
2022/03/20 01:54:35;;;;;;;6.12;3.70;;;;;;;10.47;29.64;103468.06;143724;583;47012;-77
2022/03/20 01:57:02;;;;;;;7.82;3.58;;;;;;;10.50;30.07;103465.09;143722;573;47010;-78
2022/03/20 01:59:28;;;;;;;5.60;3.00;;;;;;;10.48;29.72;103459.03;143721;566;47006;-78
2022/03/20 02:01:55;;;;;;;3.72;2.72;;;;;;;10.51;30.04;103464.09;143719;595;47009;-78
2022/03/20 02:04:21;;;;;;;6.25;3.15;;;;;;;10.52;30.55;103460.44;143721;586;47004;-79
2022/03/20 02:06:48;;;;;;;7.78;3.25;;;;;;;10.51;30.86;103444.47;143722;588;47010;-78
2022/03/20 02:09:14;;;;;;;5.07;3.42;;;;;;;10.48;31.22;103448.28;143719;609;47006;-78
2022/03/20 02:11:47;;;;;;;8.00;4.00;;;;;;;10.51;29.63;103445.28;143723;584;47009;-78
2022/03/20 02:14:14;;;;;;;5.15;3.30;;;;;;;10.53;29.93;103440.66;143722;690;47005;-78
2022/03/20 02:16:41;;;;;;;6.80;3.92;;;;;;;10.55;30.03;103436.00;143721;660;47010;-80
2022/03/20 02:19:09;;;;;;;5.28;3.12;;;;;;;10.56;30.48;103445.78;143721;686;47013;-79
2022/03/20 02:22:01;;;;;;;4.85;3.10;;;;;;;10.57;30.39;103450.16;143719;718;47008;-79
2022/03/20 02:24:41;;;;;;;5.43;3.10;;;;;;;10.54;30.34;103447.72;143722;675;47006;-80
2022/03/20 02:27:22;;;;;;;5.43;2.90;;;;;;;10.59;29.77;103444.69;143720;566;47010;-79
2022/03/20 02:29:59;;;;;;;4.72;2.60;;;;;;;10.61;30.43;103446.25;143721;585;47007;-78
2022/03/20 02:32:32;;;;;;;5.53;3.22;;;;;;;10.57;31.20;103455.53;143723;651;47002;-79
2022/03/20 02:35:04;;;;;;;16.70;10.23;;;;;;;10.57;31.65;103460.91;143722;614;47006;-78
2022/03/20 02:37:31;;;;;;;9.00;6.18;;;;;;;10.55;31.28;103451.28;143720;567;47012;-80
2022/03/20 02:40:00;;;;;;;5.75;2.75;;;;;;;10.54;29.12;103450.41;143721;632;47006;-79
2022/03/20 02:42:27;;;;;;;5.90;2.53;;;;;;;10.55;29.42;103452.12;143723;592;47008;-79
2022/03/20 02:44:58;;;;;;;6.40;2.90;;;;;;;10.43;28.65;103455.88;143724;715;47004;-79
2022/03/20 02:47:29;;;;;;;5.50;2.87;;;;;;;10.44;29.14;103453.03;143721;575;47012;-79
2022/03/20 02:49:58;;;;;;;4.87;2.30;;;;;;;10.48;29.06;103448.28;143720;579;47006;-80
2022/03/20 02:52:41;;;;;;;4.72;2.67;;;;;;;10.51;29.44;103452.53;143724;574;47007;-80
2022/03/20 02:55:08;;;;;;;5.47;3.55;;;;;;;10.51;29.67;103466.78;143722;585;47002;-80
2022/03/20 02:57:34;;;;;;;4.97;3.05;;;;;;;10.46;30.63;103469.03;143719;647;47927;-79
2022/03/20 03:00:03;;;;;;;6.30;3.92;;;;;;;10.48;31.05;103467.09;143720;605;47005;-79
2022/03/20 03:02:39;;;;;;;4.62;3.42;;;;;;;10.48;32.06;103463.53;143722;572;47006;-78
2022/03/20 03:05:05;;;;;;;7.05;4.20;;;;;;;10.50;31.27;103464.25;143722;588;47004;-78
2022/03/20 03:10:55;;;;;;;8.98;4.28;;;;;;;10.50;32.30;103467.78;143718;575;47010;-80
2022/03/20 03:13:07;;;;;;;6.57;3.17;;;;;;;10.38;31.82;103471.47;143723;579;47006;-77
2022/03/20 03:15:33;;;;;;;6.35;3.12;;;;;;;10.29;31.66;103455.16;143723;587;47002;-78
2022/03/20 03:18:00;;;;;;;5.75;3.37;;;;;;;10.36;31.33;103447.44;143722;570;47006;-78
2022/03/20 03:20:27;;;;;;;5.87;3.00;;;;;;;10.41;31.04;103458.66;143720;572;47004;-78
2022/03/20 03:22:54;;;;;;;4.90;3.08;;;;;;;10.41;30.71;103463.19;143721;581;47002;-78
2022/03/20 03:25:22;;;;;;;4.85;2.92;;;;;;;10.39;30.20;103465.16;143722;596;47004;-79
2022/03/20 03:27:48;;;;;;;5.53;3.37;;;;;;;10.36;29.81;103468.06;143722;585;47004;-79
2022/03/20 03:30:15;;;;;;;4.20;3.08;;;;;;;10.40;30.35;103466.87;143722;582;47004;-78
2022/03/20 03:32:43;;;;;;;6.20;2.92;;;;;;;10.42;31.18;103470.28;143720;566;47937;-79
2022/03/20 03:37:56;;;;;;;8.23;3.37;;;;;;;10.39;33.21;103486.66;143722;593;47004;-79
2022/03/20 03:40:22;;;;;;;5.78;3.67;;;;;;;10.36;33.80;103489.56;143720;587;47004;-79
2022/03/20 03:42:49;;;;;;;4.35;3.00;;;;;;;10.34;34.21;103488.81;143724;657;47006;-79
2022/03/20 03:45:15;;;;;;;6.15;3.25;;;;;;;10.31;35.00;103500.69;143722;619;47007;-79
2022/03/20 03:47:42;;;;;;;4.62;3.25;;;;;;;10.27;36.29;103499.25;143722;683;47928;-78
2022/03/20 03:50:09;;;;;;;4.07;3.37;;;;;;;10.27;37.42;103489.38;143721;665;47004;-79
2022/03/20 03:52:37;;;;;;;6.22;3.47;;;;;;;10.25;37.34;103498.50;143720;695;47006;-78
2022/03/20 03:55:16;;;;;;;4.87;3.42;;;;;;;10.23;36.87;103506.72;143727;572;47002;-76
2022/03/20 03:57:52;;;;;;;5.72;3.50;;;;;;;10.19;37.27;103502.56;143726;732;46008;-79
2022/03/20 04:00:21;;;;;;;5.32;3.12;;;;;;;10.13;35.10;103495.88;143728;615;46003;-75
2022/03/20 04:02:49;;;;;;;6.68;3.65;;;;;;;9.91;35.00;103501.28;143720;585;46994;-78
2022/03/20 04:05:17;;;;;;;6.90;3.37;;;;;;;9.91;35.94;103504.84;143724;595;47002;-80
2022/03/20 04:07:47;;;;;;;7.78;5.32;;;;;;;10.00;38.09;103506.75;143723;567;47011;-79
2022/03/20 04:10:16;;;;;;;8.95;6.18;;;;;;;10.05;38.00;103497.47;143719;586;47004;-78
2022/03/20 04:12:43;;;;;;;5.72;3.92;;;;;;;10.08;37.21;103505.28;143724;608;46006;-81
2022/03/20 04:15:11;;;;;;;12.40;6.00;;;;;;;10.09;39.58;103515.91;143723;614;47005;-80
2022/03/20 04:17:38;;;;;;;10.63;6.10;;;;;;;10.05;40.89;103513.59;143722;589;47008;-80
2022/03/20 04:20:06;;;;;;;8.90;5.43;;;;;;;10.02;40.58;103512.03;143721;587;47004;-79
2022/03/20 04:22:38;;;;;;;8.68;5.40;;;;;;;9.97;40.79;103506.16;143720;605;46007;-79
2022/03/20 04:25:06;;;;;;;9.38;6.05;;;;;;;9.96;40.94;103515.19;143723;663;47002;-79
2022/03/20 04:27:32;;;;;;;8.93;4.97;;;;;;;9.95;39.69;103519.72;143720;579;47008;-79
2022/03/20 04:29:59;;;;;;;9.60;5.03;;;;;;;9.89;40.85;103520.22;143721;586;47004;-79
2022/03/20 04:32:26;;;;;;;6.95;5.07;;;;;;;9.85;40.82;103519.62;143721;567;47006;-80
2022/03/20 04:34:55;;;;;;;5.95;4.70;;;;;;;9.83;41.05;103528.75;143722;686;47004;-79
2022/03/20 04:37:21;;;;;;;9.70;5.35;;;;;;;9.78;41.45;103523.78;143722;597;47009;-79
2022/03/20 04:39:49;;;;;;;10.30;6.30;;;;;;;9.75;41.07;103520.50;143722;582;47004;-78
2022/03/20 04:42:15;;;;;;;22.17;15.73;;;;;;;9.76;39.50;103514.16;143723;621;47006;-78
2022/03/20 04:44:43;;;;;;;16.73;9.05;;;;;;;9.73;39.25;103519.75;143723;579;47004;-79
2022/03/20 04:58:30;;;;;;;8.38;7.35;;;;;;;9.79;34.08;103511.22;143724;585;46008;-78
2022/03/20 05:00:57;;;;;;;8.25;5.95;;;;;;;9.75;33.56;103515.13;143720;715;47004;-78
2022/03/20 05:03:24;;;;;;;7.95;6.28;;;;;;;9.76;33.58;103514.16;143725;710;47006;-77
2022/03/20 05:05:50;;;;;;;6.30;5.68;;;;;;;9.71;34.00;103519.88;143721;576;47003;-78
2022/03/20 05:08:16;;;;;;;9.07;5.70;;;;;;;9.73;33.80;103534.00;143720;666;47011;-79
2022/03/20 05:13:27;;;;;;;5.72;5.12;;;;;;;9.71;33.86;103517.19;143722;628;46007;-79
2022/03/20 05:15:55;;;;;;;7.90;5.47;;;;;;;9.75;33.29;103517.81;143722;567;47002;-79
2022/03/20 05:18:22;;;;;;;8.55;5.03;;;;;;;9.73;33.06;103517.06;143721;608;47008;-79
2022/03/20 05:20:51;;;;;;;7.70;4.82;;;;;;;9.73;32.97;103522.44;143724;570;47005;-78
2022/03/20 05:23:18;;;;;;;6.95;4.82;;;;;;;9.75;32.33;103513.28;143720;590;47006;-79
2022/03/20 05:25:44;;;;;;;6.12;4.40;;;;;;;9.79;32.87;103521.97;143722;592;47002;-78
2022/03/20 05:28:11;;;;;;;7.65;5.37;;;;;;;9.80;33.18;103526.31;143724;606;47008;-79
2022/03/20 05:30:37;;;;;;;6.35;4.90;;;;;;;9.81;33.19;103536.94;143720;590;47004;-78
2022/03/20 05:33:04;;;;;;;5.70;5.10;;;;;;;9.78;33.44;103537.19;143723;566;47006;-81
2022/03/20 05:35:31;;;;;;;7.00;4.20;;;;;;;9.79;32.99;103528.16;143722;598;47004;-78
2022/03/20 05:37:58;;;;;;;6.90;5.10;;;;;;;9.83;32.72;103531.44;143721;576;47011;-79
2022/03/20 05:40:24;;;;;;;6.30;4.47;;;;;;;9.82;33.68;103537.78;143721;604;47004;-79
2022/03/20 05:42:51;;;;;;;9.50;4.50;;;;;;;9.77;33.60;103530.12;143722;627;47006;-79
2022/03/20 05:45:17;;;;;;;14.00;9.73;;;;;;;9.76;34.48;103535.63;143722;590;47002;-80
2022/03/20 05:47:44;;;;;;;11.90;8.70;;;;;;;9.79;33.99;103536.22;143722;590;47010;-77
2022/03/20 05:50:10;;;;;;;12.00;8.43;;;;;;;9.80;33.43;103531.69;143718;615;47004;-79
2022/03/20 05:52:38;;;;;;;7.95;6.00;;;;;;;9.77;33.14;103540.84;143720;589;47007;-78
2022/03/20 05:55:05;;;;;;;8.30;5.00;;;;;;;9.81;33.50;103533.41;143723;582;47002;-78
2022/03/20 06:00:28;;;;;;;6.37;4.68;;;;;;;9.89;32.96;103540.84;143722;583;47010;-79
2022/03/20 06:02:54;;;;;;;5.45;4.72;;;;;;;9.91;33.22;103549.63;143723;593;47008;-78
2022/03/20 06:05:22;;;;;;;8.30;5.82;;;;;;;9.91;32.05;103534.38;143722;580;47006;-79
2022/03/20 06:07:49;;;;;;;7.47;5.03;;;;;;;9.94;31.67;103539.50;143724;575;47010;-78
2022/03/20 06:10:19;;;;;;;9.15;4.93;;;;;;;9.99;32.45;103539.13;143721;580;47932;-79
2022/03/20 06:12:46;;;;;;;8.18;4.97;;;;;;;10.05;33.00;103541.31;143721;660;47008;-79
2022/03/20 06:15:13;;;;;;;9.00;5.80;;;;;;;10.10;31.75;103538.25;143724;592;47004;-79
2022/03/20 06:17:45;;;;;;;8.25;5.20;;;;;;;10.16;31.71;103543.97;143721;595;47012;-79
2022/03/20 06:20:14;;;;;;;9.75;7.15;;;;;;;10.17;31.97;103550.19;143721;562;47006;-77
2022/03/20 06:22:42;;;;;;;9.70;7.68;;;;;;;10.19;31.90;103547.38;143722;574;47008;-79
2022/03/20 06:25:11;;;;;;;7.00;5.40;;;;;;;10.23;33.13;103540.78;143723;597;47004;-80
2022/03/20 06:27:51;;;;;;;10.23;5.70;;;;;;;10.27;33.22;103543.09;143721;609;47012;-79
2022/03/20 06:30:20;;;;;;;5.82;4.22;;;;;;;10.30;32.22;103544.66;143720;592;47006;-79
2022/03/20 06:32:47;;;;;;;6.57;4.35;;;;;;;10.32;32.09;103543.53;143720;601;47008;-79
2022/03/20 06:35:17;;;;;;;4.95;3.42;;;;;;;10.36;31.61;103544.16;143721;569;47006;-79
2022/03/20 06:37:45;;;;;;;6.32;4.47;;;;;;;10.32;31.01;103548.06;143721;634;47013;-80
2022/03/20 06:40:14;;;;;;;8.88;7.18;;;;;;;10.30;32.19;103553.59;143720;591;47006;-80
2022/03/20 06:42:41;;;;;;;6.37;4.57;;;;;;;10.31;32.66;103559.78;143719;623;47008;-79
2022/03/20 06:45:14;;;;;;;6.68;4.12;;;;;;;10.22;32.64;103569.47;143721;575;47007;-79
2022/03/20 06:47:43;;;;;;;10.05;4.22;;;;;;;10.21;34.84;103564.22;143720;614;47010;-80
2022/03/20 06:50:11;;;;;;;7.95;3.65;;;;;;;10.24;35.10;103567.50;143722;575;47006;-81
2022/03/20 06:52:41;;;;;;;5.40;3.67;;;;;;;10.22;34.61;103566.78;143723;714;47008;-77
2022/03/20 06:55:12;;;;;;;7.37;3.42;;;;;;;10.11;34.22;103562.28;143724;659;47006;-80
2022/03/20 06:57:43;;;;;;;7.75;3.80;;;;;;;10.07;33.70;103560.81;143721;627;47012;-79
2022/03/20 07:00:12;;;;;;;7.97;4.35;;;;;;;10.01;34.12;103577.44;143722;572;47006;-79
2022/03/20 07:02:38;;;;;;;5.82;4.53;;;;;;;10.04;34.12;103568.28;143722;574;47008;-79
2022/03/20 07:05:05;;;;;;;6.37;4.37;;;;;;;9.99;34.67;103574.03;143724;599;47004;-80
2022/03/20 07:07:34;;;;;;;6.35;4.00;;;;;;;10.03;34.22;103591.59;143724;577;47013;-80
2022/03/20 07:10:01;;;;;;;9.25;4.00;;;;;;;10.09;37.41;103593.78;143722;627;47006;-80
2022/03/20 07:12:27;;;;;;;7.28;3.75;;;;;;;10.07;38.52;103597.56;143716;686;47930;-79
2022/03/20 07:14:54;;;;;;;6.80;3.67;;;;;;;10.10;37.80;103592.81;143724;702;47004;-84
2022/03/20 07:17:24;;;;;;;5.87;4.60;;;;;;;10.13;39.51;103597.94;143718;606;47012;-81
2022/03/20 07:19:50;;;;;;;7.40;4.32;;;;;;;10.12;39.46;103598.91;143722;565;47007;-80
2022/03/20 07:22:19;;;;;;;8.93;5.05;;;;;;;10.08;37.86;103597.44;143722;661;47008;-80
2022/03/20 07:24:46;;;;;;;9.15;4.97;;;;;;;10.11;39.03;103599.87;143724;757;47004;-81
2022/03/20 07:29:57;;;;;;;7.93;5.15;;;;;;;10.13;40.18;103600.62;143713;623;50006;-80
2022/03/20 07:32:24;;;;;;;9.00;6.25;;;;;;;10.12;39.63;103609.66;143722;572;47008;-79
2022/03/20 07:34:51;;;;;;;8.68;5.47;;;;;;;10.04;40.76;103608.56;143721;568;47006;-79
2022/03/20 07:37:18;;;;;;;6.87;4.35;;;;;;;9.97;42.17;103605.50;143721;592;47013;-79
2022/03/20 07:39:47;;;;;;;6.87;5.28;;;;;;;10.00;41.60;103598.06;143721;587;47015;-78
2022/03/20 07:42:18;;;;;;;8.60;5.00;;;;;;;10.05;41.96;103583.41;143722;603;47008;-77
2022/03/20 07:44:45;;;;;;;8.27;5.28;;;;;;;10.11;41.24;103586.44;143723;604;47006;-80
2022/03/20 07:47:21;;;;;;;11.07;8.00;;;;;;;10.17;43.02;103585.09;143723;638;47010;-79
2022/03/20 07:49:49;;;;;;;9.27;6.00;;;;;;;10.26;42.99;103573.62;143722;592;47006;-78
2022/03/20 07:52:16;;;;;;;7.75;6.07;;;;;;;10.39;42.91;103570.81;143725;582;47008;-77
2022/03/20 07:54:45;;;;;;;10.90;6.18;;;;;;;10.50;42.18;103567.19;143723;582;47004;-77
2022/03/20 07:57:12;;;;;;;8.25;6.78;;;;;;;10.59;42.46;103563.75;143725;709;47010;-78
2022/03/20 07:59:38;;;;;;;6.50;5.30;;;;;;;10.64;43.34;103560.69;143720;707;47006;-77
2022/03/20 08:02:06;;;;;;;7.62;4.90;;;;;;;10.72;44.37;103568.97;143722;688;47008;-79
2022/03/20 08:04:33;;;;;;;8.27;5.50;;;;;;;10.68;42.60;103554.06;143722;578;47004;-76
2022/03/20 08:06:59;;;;;;;9.27;5.60;;;;;;;10.67;41.88;103560.44;143724;611;47010;-75
2022/03/20 08:09:28;;;;;;;6.62;4.45;;;;;;;10.65;40.61;103558.87;143721;601;47006;-76
2022/03/20 08:11:56;;;;;;;9.60;4.00;;;;;;;10.69;42.53;103549.53;143722;574;47004;-77
2022/03/20 08:14:23;;;;;;;4.95;3.20;;;;;;;10.70;38.26;103546.75;143725;580;47002;-78
2022/03/20 08:16:51;;;;;;;7.18;3.40;;;;;;;10.67;37.30;103547.00;143723;572;47010;-77
2022/03/20 08:19:19;;;;;;;5.22;3.25;;;;;;;10.61;36.59;103540.31;143721;610;47006;-78
2022/03/20 08:21:48;;;;;;;5.68;2.95;;;;;;;10.65;37.80;103537.38;143723;573;47008;-72
2022/03/20 08:24:14;;;;;;;7.43;3.75;;;;;;;10.73;37.99;103532.19;143724;608;47004;-79
2022/03/20 08:26:41;;;;;;;4.93;3.20;;;;;;;10.86;37.11;103534.69;143723;573;47012;-81
2022/03/20 08:29:10;;;;;;;6.95;3.55;;;;;;;10.96;37.77;103526.69;143719;605;47006;-80
2022/03/20 08:31:36;;;;;;;5.37;3.53;;;;;;;11.10;36.70;103533.56;143725;581;47008;-85
2022/03/20 08:34:04;;;;;;;4.82;3.28;;;;;;;11.17;36.90;103524.84;143725;576;47005;-82
2022/03/20 08:36:31;;;;;;;4.05;3.35;;;;;;;11.16;37.43;103519.56;143721;745;47010;-78
2022/03/20 08:38:57;;;;;;;3.92;3.00;;;;;;;11.11;35.35;103532.59;143722;594;47006;-74
2022/03/20 08:41:24;;;;;;;4.07;3.30;;;;;;;11.01;36.38;103514.53;143724;650;47008;-77
2022/03/20 08:43:50;;;;;;;6.18;4.35;;;;;;;11.16;36.47;103509.69;143725;587;47007;-77
2022/03/20 08:46:17;;;;;;;6.75;3.22;;;;;;;11.12;35.85;103518.16;143724;652;47010;-77
2022/03/20 08:48:43;;;;;;;5.93;4.78;;;;;;;11.23;36.75;103513.53;143723;673;47006;-81
2022/03/20 08:51:10;;;;;;;5.15;3.40;;;;;;;11.43;36.23;103521.69;143725;595;47009;-75
2022/03/20 08:53:37;;;;;;;4.12;3.50;;;;;;;11.53;35.72;103508.28;143725;581;47006;-78
2022/03/20 08:56:04;;;;;;;5.72;4.15;;;;;;;11.71;36.33;103502.22;143726;581;47010;-81
2022/03/20 08:58:31;;;;;;;4.55;3.55;;;;;;;11.66;35.26;103491.88;143722;567;47006;-78
2022/03/20 09:01:00;;;;;;;7.22;6.15;;;;;;;11.65;35.64;103484.78;143722;602;47008;-75
2022/03/20 09:03:26;;;;;;;5.62;4.47;;;;;;;11.57;34.27;103479.22;143725;568;47008;-78
2022/03/20 09:05:53;;;;;;;6.53;4.78;;;;;;;11.45;34.38;103478.50;143725;603;47012;-83
2022/03/20 09:08:22;;;;;;;7.87;5.12;;;;;;;11.48;34.77;103484.47;143724;588;47004;-81
2022/03/20 09:10:51;;;;;;;9.18;5.93;;;;;;;11.43;35.15;103475.94;143724;576;47008;-80
2022/03/20 09:13:18;;;;;;;5.22;4.32;;;;;;;11.50;34.96;103474.41;143727;585;47002;-81
2022/03/20 09:15:44;;;;;;;14.50;9.00;;;;;;;11.58;35.04;103470.16;143723;591;47012;-78
2022/03/20 09:20:55;;;;;;;4.45;3.50;;;;;;;11.64;34.19;103462.41;143725;614;47007;-77
2022/03/20 09:23:21;;;;;;;6.25;4.37;;;;;;;11.71;34.15;103462.72;143725;651;47004;-77
2022/03/20 09:25:50;;;;;;;12.75;9.88;;;;;;;11.80;34.63;103456.47;143725;579;46023;-73
2022/03/20 09:28:18;;;;;;;8.23;6.25;;;;;;;11.79;33.06;103467.41;143723;654;47006;-76
2022/03/20 09:30:45;;;;;;;5.72;4.60;;;;;;;11.85;33.13;103464.13;143726;584;47008;-74
2022/03/20 09:33:16;;;;;;;13.20;6.32;;;;;;;11.93;33.43;103466.13;143728;699;47004;-75
2022/03/20 09:35:44;;;;;;;5.65;4.87;;;;;;;11.82;35.23;103467.13;143726;644;46031;-81
2022/03/20 09:38:11;;;;;;;5.03;4.22;;;;;;;11.97;33.66;103465.75;143723;582;47006;-79
2022/03/20 09:40:38;;;;;;;10.70;4.65;;;;;;;12.03;33.77;103467.03;143724;686;47008;-80
2022/03/20 09:43:06;;;;;;;7.60;5.72;;;;;;;12.16;33.33;103461.38;143725;584;47004;-78
2022/03/20 09:45:33;;;;;;;9.68;5.62;;;;;;;12.51;33.55;103459.94;143722;590;47010;-82
2022/03/20 09:48:01;;;;;;;6.45;4.95;;;;;;;12.74;32.29;103462.31;143719;624;47007;-77
2022/03/20 09:50:27;;;;;;;7.07;4.40;;;;;;;12.63;31.37;103449.84;143725;619;47008;-79
2022/03/20 09:52:54;;;;;;;4.82;4.12;;;;;;;12.53;31.04;103441.75;143728;611;47004;-79
2022/03/20 09:55:20;;;;;;;6.53;4.70;;;;;;;12.47;31.20;103447.75;143723;583;47011;-81
2022/03/20 09:57:46;;;;;;;7.15;3.53;;;;;;;12.56;31.17;103443.34;143722;621;47006;-80
2022/03/20 10:00:16;;;;;;;5.60;3.40;;;;;;;12.54;31.72;103446.16;143724;597;46008;-78
2022/03/20 10:02:43;;;;;;;7.05;3.72;;;;;;;12.73;31.53;103456.06;143725;584;47004;-83
2022/03/20 10:05:10;;;;;;;8.48;3.12;;;;;;;12.88;31.01;103452.91;143723;637;47011;-80
2022/03/20 10:07:43;;;;;;;5.95;4.47;;;;;;;12.92;30.95;103443.53;143723;614;47006;-82
2022/03/20 10:10:32;;;;;;;5.68;3.90;;;;;;;12.86;30.94;103441.41;143723;574;47008;-83
2022/03/20 10:13:00;;;;;;;7.57;3.83;;;;;;;12.84;30.89;103443.41;143724;586;47004;-82
2022/03/20 10:15:35;;;;;;;4.87;3.72;;;;;;;12.73;31.39;103447.13;143722;574;47010;-86
2022/03/20 10:18:17;;;;;;;4.65;3.45;;;;;;;12.62;31.24;103456.22;143723;581;47006;-83
2022/03/20 10:20:48;;;;;;;7.35;3.90;;;;;;;12.55;31.28;103457.81;143724;614;47008;-75
2022/03/20 10:23:41;;;;;;;9.93;7.03;;;;;;;12.38;33.20;103462.94;143725;582;47004;-80
2022/03/20 10:26:10;;;;;;;8.18;4.85;;;;;;;12.29;33.13;103450.31;143721;625;47012;-81
2022/03/20 10:28:42;;;;;;;9.02;5.47;;;;;;;12.36;33.42;103455.97;143722;573;47006;-81
2022/03/20 10:31:15;;;;;;;6.03;4.97;;;;;;;12.38;34.05;103462.94;143724;602;47008;-80
2022/03/20 10:33:43;;;;;;;7.65;4.60;;;;;;;12.42;33.67;103468.88;143724;604;47004;-80
2022/03/20 10:36:17;;;;;;;4.97;3.60;;;;;;;12.51;33.22;103453.69;143725;573;47010;-78
2022/03/20 10:38:50;;;;;;;6.50;4.05;;;;;;;12.53;33.04;103451.72;143723;573;47006;-79
2022/03/20 10:41:38;;;;;;;5.68;3.97;;;;;;;12.48;32.85;103438.66;143724;575;47008;-77
2022/03/20 10:44:24;;;;;;;9.40;6.62;;;;;;;12.54;31.87;103434.53;143725;589;47006;-79
2022/03/20 10:47:12;;;;;;;21.02;10.70;;;;;;;12.55;32.44;103441.62;143723;567;47010;-79
2022/03/20 10:49:46;;;;;;;8.70;4.30;;;;;;;12.53;32.17;103439.06;143722;622;47006;-78
2022/03/20 10:52:19;;;;;;;8.45;4.10;;;;;;;12.53;31.21;103433.66;143724;595;47008;-79
2022/03/20 10:55:28;;;;;;;7.43;5.00;;;;;;;12.52;31.69;103440.09;143727;582;46008;-77
2022/03/20 10:57:54;;;;;;;8.43;6.55;;;;;;;12.47;31.88;103444.19;143720;590;48010;-77
2022/03/20 11:00:21;;;;;;;6.20;5.20;;;;;;;12.39;31.59;103435.00;143723;629;47006;-80
2022/03/20 11:02:48;;;;;;;8.88;6.30;;;;;;;12.57;31.42;103426.16;143724;607;47008;-77
2022/03/20 11:05:20;;;;;;;10.75;7.30;;;;;;;12.59;32.15;103434.97;143728;610;46025;-74
2022/03/20 11:07:48;;;;;;;10.32;6.60;;;;;;;12.56;31.48;103424.47;143723;581;47010;-76
2022/03/20 11:10:17;;;;;;;15.27;8.48;;;;;;;12.58;32.12;103417.91;143723;573;47006;-74
2022/03/20 11:12:46;;;;;;;9.52;6.62;;;;;;;12.63;31.68;103413.94;143723;641;47008;-75
2022/03/20 11:15:13;;;;;;;15.43;10.95;;;;;;;12.76;32.06;103409.06;143723;573;47002;-79
2022/03/20 11:17:49;;;;;;;12.18;7.30;;;;;;;12.89;30.20;103392.56;143729;577;47018;-77
2022/03/20 11:20:22;;;;;;;14.05;8.57;;;;;;;12.94;30.18;103384.91;143730;584;47004;-76
2022/03/20 11:22:59;;;;;;;9.80;6.15;;;;;;;12.97;30.26;103379.19;143731;591;46006;-79
2022/03/20 11:25:26;;;;;;;11.38;5.30;;;;;;;13.00;30.53;103386.97;143731;596;47002;-78
2022/03/20 11:28:03;;;;;;;10.95;6.93;;;;;;;13.08;30.84;103380.00;143730;613;47010;-77
2022/03/20 11:30:32;;;;;;;10.70;6.78;;;;;;;13.07;31.94;103387.22;143728;594;48002;-80
2022/03/20 11:33:00;;;;;;;5.72;4.60;;;;;;;12.99;33.04;103384.44;143732;573;47006;-81
2022/03/20 11:35:32;;;;;;;7.95;5.12;;;;;;;12.87;33.01;103378.38;143733;576;47002;-81
2022/03/20 11:38:17;;;;;;;6.87;4.18;;;;;;;12.76;32.37;103371.31;143732;569;47008;-80
2022/03/20 11:41:27;;;;;;;7.78;5.47;;;;;;;12.72;32.74;103364.50;143730;606;47004;-81
2022/03/20 11:44:20;;;;;;;15.65;10.35;;;;;;;12.64;32.39;103369.81;143733;577;48002;-81
2022/03/20 11:47:34;;;;;;;9.85;5.65;;;;;;;12.64;31.52;103367.94;143731;605;47002;-78
2022/03/20 11:50:26;;;;;;;9.15;5.62;;;;;;;12.54;31.90;103364.44;143730;578;47006;-79
2022/03/20 11:53:31;;;;;;;9.70;6.20;;;;;;;12.56;32.38;103348.97;143728;594;47930;-80
2022/03/20 11:55:58;;;;;;;8.90;4.07;;;;;;;12.62;31.93;103353.75;143732;644;47006;-80
2022/03/20 11:58:36;;;;;;;6.70;3.62;;;;;;;12.57;31.88;103350.69;143732;598;47004;-81
2022/03/20 12:01:05;;;;;;;5.75;3.60;;;;;;;12.47;31.89;103341.75;143729;583;47010;-78
2022/03/20 12:03:55;;;;;;;6.37;3.58;;;;;;;12.40;31.46;103339.66;143730;594;47006;-77
2022/03/20 12:06:52;;;;;;;9.07;5.53;;;;;;;12.44;30.77;103330.25;143732;573;47008;-77